createdAt,value
2023-01-31T00:01:43.216Z,100343.09
2023-01-31T00:04:12.855Z,100337.78
2023-01-31T00:06:44.689Z,100344.78
2023-01-31T00:09:15.925Z,100324.06
2023-01-31T00:11:42.678Z,100314.56
2023-01-31T00:14:18.287Z,100339.34
2023-01-31T00:16:44.940Z,100336.44
2023-01-31T00:19:11.719Z,100331.94
2023-01-31T00:24:05.874Z,100331.25
2023-01-31T00:29:06.331Z,100340.59
2023-01-31T00:31:35.055Z,100345.13
2023-01-31T00:34:02.799Z,100343.44
2023-01-31T00:36:32.821Z,100346.81
2023-01-31T00:39:01.868Z,100351.84
2023-01-31T00:41:30.519Z,100357.72
2023-01-31T00:43:57.814Z,100347.66
2023-01-31T00:46:25.011Z,100351.84
2023-01-31T00:48:52.292Z,100351.84
2023-01-31T00:51:20.210Z,100366.72
2023-01-31T00:53:47.971Z,100379.44
2023-01-31T00:56:19.876Z,100362.47
2023-01-31T00:58:46.714Z,100376.50
2023-01-31T01:01:21.435Z,100376.78
2023-01-31T01:03:49.166Z,100370.91
2023-01-31T01:06:19.604Z,100379.00
2023-01-31T01:08:46.906Z,100384.09
2023-01-31T01:11:30.056Z,100388.81
2023-01-31T01:13:58.272Z,100385.03
2023-01-31T01:16:28.608Z,100374.81
2023-01-31T01:18:55.427Z,100369.25
2023-01-31T01:21:26.879Z,100374.53
2023-01-31T01:23:55.925Z,100384.09
2023-01-31T01:26:25.415Z,100376.94
2023-01-31T01:28:56.710Z,100369.53
2023-01-31T01:31:30.400Z,100377.94
2023-01-31T01:34:00.638Z,100376.78
2023-01-31T01:36:27.931Z,100360.81
2023-01-31T01:38:55.773Z,100357.63
2023-01-31T01:41:25.846Z,100366.16
2023-01-31T01:43:58.763Z,100370.09
2023-01-31T01:46:39.835Z,100377.47
2023-01-31T01:49:28.841Z,100384.78
2023-01-31T01:52:01.935Z,100391.75
2023-01-31T01:54:39.798Z,100397.50
2023-01-31T01:57:12.048Z,100398.63
2023-01-31T01:59:40.102Z,100405.91
2023-01-31T02:02:10.144Z,100411.78
2023-01-31T02:04:39.847Z,100403.66
2023-01-31T02:07:11.103Z,100408.00
2023-01-31T02:09:41.047Z,100419.88
2023-01-31T02:12:12.567Z,100433.06
2023-01-31T02:14:40.915Z,100429.41
2023-01-31T02:17:15.087Z,100428.13
2023-01-31T02:20:01.399Z,100428.16
2023-01-31T02:22:31.271Z,100431.66
2023-01-31T02:25:10.275Z,100428.72
2023-01-31T02:30:22.965Z,100430.25
2023-01-31T02:32:58.268Z,100415.28
2023-01-31T02:35:39.692Z,100412.88
2023-01-31T02:38:31.644Z,100422.81
2023-01-31T02:41:34.317Z,100427.59
2023-01-31T02:44:33.243Z,100421.56
2023-01-31T02:47:25.093Z,100434.16
2023-01-31T02:50:14.512Z,100436.53
2023-01-31T02:52:53.205Z,100431.97
2023-01-31T02:55:39.695Z,100438.66
2023-01-31T02:58:09.223Z,100436.25
2023-01-31T03:00:39.705Z,100434.75
2023-01-31T03:03:22.015Z,100440.91
2023-01-31T03:06:27.208Z,100436.97
2023-01-31T03:09:26.462Z,100440.06
2023-01-31T03:12:10.996Z,100437.81
2023-01-31T03:14:40.007Z,100438.22
2023-01-31T03:17:33.537Z,100447.19
2023-01-31T03:20:19.567Z,100453.91
2023-01-31T03:22:46.275Z,100452.50
2023-01-31T03:25:20.363Z,100453.50
2023-01-31T03:27:56.800Z,100442.31
2023-01-31T03:30:39.822Z,100445.50
2023-01-31T03:33:19.987Z,100455.44
2023-01-31T03:35:56.495Z,100458.41
2023-01-31T03:38:31.778Z,100443.72
2023-01-31T03:41:09.199Z,100454.75
2023-01-31T03:43:42.846Z,100457.97
2023-01-31T03:46:28.146Z,100458.53
2023-01-31T03:48:59.689Z,100466.53
2023-01-31T03:51:37.068Z,100477.84
2023-01-31T03:54:14.080Z,100485.97
2023-01-31T03:56:46.270Z,100493.38
2023-01-31T03:59:17.908Z,100490.19
2023-01-31T04:01:52.274Z,100508.78
2023-01-31T04:04:29.882Z,100505.97
2023-01-31T04:06:57.724Z,100499.56
2023-01-31T04:09:24.815Z,100504.88
2023-01-31T04:11:52.405Z,100508.66
2023-01-31T04:14:22.868Z,100507.22
2023-01-31T04:16:57.153Z,100503.59
2023-01-31T04:19:24.009Z,100502.88
2023-01-31T04:21:50.796Z,100490.44
2023-01-31T04:24:20.831Z,100488.91
2023-01-31T04:26:48.047Z,100482.31
2023-01-31T04:29:14.897Z,100487.94
2023-01-31T04:31:44.046Z,100485.94
2023-01-31T04:34:10.834Z,100484.84
2023-01-31T04:39:04.528Z,100482.03
2023-01-31T04:41:32.007Z,100483.31
2023-01-31T04:43:58.977Z,100478.13
2023-01-31T04:46:25.951Z,100490.16
2023-01-31T04:48:58.687Z,100477.00
2023-01-31T04:51:25.723Z,100476.16
2023-01-31T04:53:52.528Z,100483.16
2023-01-31T04:56:20.221Z,100480.34
2023-01-31T04:58:48.485Z,100480.75
2023-01-31T05:01:15.322Z,100474.19
2023-01-31T05:03:42.111Z,100463.97
2023-01-31T05:06:09.003Z,100468.16
2023-01-31T05:08:36.334Z,100464.38
2023-01-31T05:11:05.847Z,100463.53
2023-01-31T05:13:33.775Z,100462.97
2023-01-31T05:16:00.674Z,100453.72
2023-01-31T05:18:27.577Z,100461.25
2023-01-31T05:20:54.307Z,100463.53
2023-01-31T05:23:21.095Z,100462.41
2023-01-31T05:25:50.344Z,100471.75
2023-01-31T05:28:17.477Z,100471.06
2023-01-31T05:30:44.403Z,100468.53
2023-01-31T05:33:11.872Z,100464.59
2023-01-31T05:35:39.766Z,100463.47
2023-01-31T05:38:10.100Z,100471.06
2023-01-31T05:40:36.968Z,100487.25
2023-01-31T05:43:12.524Z,100477.22
2023-01-31T05:45:43.246Z,100478.88
2023-01-31T05:48:10.282Z,100482.97
2023-01-31T05:50:37.015Z,100484.06
2023-01-31T05:53:06.449Z,100480.69
2023-01-31T05:55:33.353Z,100471.34
2023-01-31T05:58:01.534Z,100474.16
2023-01-31T06:00:28.532Z,100480.03
2023-01-31T06:02:59.909Z,100473.59
2023-01-31T06:05:36.355Z,100475.28
2023-01-31T06:08:03.854Z,100480.91
2023-01-31T06:10:30.853Z,100485.09
2023-01-31T06:12:57.534Z,100481.44
2023-01-31T06:15:27.325Z,100492.91
2023-01-31T06:17:57.190Z,100475.44
2023-01-31T06:20:27.046Z,100479.22
2023-01-31T06:22:53.792Z,100475.31
2023-01-31T06:25:20.744Z,100475.16
2023-01-31T06:27:47.631Z,100476.44
2023-01-31T06:30:20.893Z,100471.38
2023-01-31T06:32:47.591Z,100463.97
2023-01-31T06:35:14.648Z,100466.06
2023-01-31T06:37:41.393Z,100466.06
2023-01-31T06:40:11.765Z,100465.78
2023-01-31T06:45:05.509Z,100458.22
2023-01-31T06:47:32.657Z,100467.75
2023-01-31T06:50:00.171Z,100463.28
2023-01-31T06:52:26.867Z,100461.25
2023-01-31T06:54:54.279Z,100466.84
2023-01-31T06:57:21.065Z,100463.78
2023-01-31T06:59:47.761Z,100481.94
2023-01-31T07:02:14.447Z,100478.63
2023-01-31T07:04:41.132Z,100484.34
2023-01-31T07:07:07.787Z,100481.78
2023-01-31T07:09:34.447Z,100488.84
2023-01-31T07:12:02.617Z,100493.03
2023-01-31T07:14:30.080Z,100489.34
2023-01-31T07:16:57.724Z,100486.50
2023-01-31T07:19:24.407Z,100501.09
2023-01-31T07:21:51.323Z,100509.41
2023-01-31T07:24:18.273Z,100509.38
2023-01-31T07:26:47.838Z,100507.50
2023-01-31T07:29:14.544Z,100504.69
2023-01-31T07:31:41.243Z,100507.66
2023-01-31T07:34:07.961Z,100511.94
2023-01-31T07:36:34.611Z,100517.22
2023-01-31T07:39:02.112Z,100507.06
2023-01-31T07:41:28.781Z,100510.50
2023-01-31T07:43:55.444Z,100519.13
2023-01-31T07:46:22.217Z,100531.09
2023-01-31T07:48:49.748Z,100527.34
2023-01-31T07:51:16.447Z,100535.50
2023-01-31T07:53:44.125Z,100549.94
2023-01-31T07:56:17.022Z,100549.00
2023-01-31T07:58:46.104Z,100552.16
2023-01-31T08:04:20.056Z,100555.56
2023-01-31T08:06:49.310Z,100559.88
2023-01-31T08:09:16.592Z,100552.59
2023-01-31T08:11:43.988Z,100556.16
2023-01-31T08:14:10.855Z,100549.06
2023-01-31T08:19:05.083Z,100546.44
2023-01-31T08:21:31.811Z,100537.34
2023-01-31T08:23:58.522Z,100533.91
2023-01-31T08:26:25.549Z,100525.66
2023-01-31T08:28:54.426Z,100521.03
2023-01-31T08:31:24.585Z,100523.19
2023-01-31T08:33:53.532Z,100524.56
2023-01-31T08:36:29.538Z,100507.22
2023-01-31T08:38:56.479Z,100507.81
2023-01-31T08:41:25.407Z,100505.41
2023-01-31T08:43:56.656Z,100503.63
2023-01-31T08:46:25.910Z,100505.97
2023-01-31T08:48:52.897Z,100501.91
2023-01-31T08:51:19.892Z,100500.25
2023-01-31T08:53:46.724Z,100502.34
2023-01-31T08:56:14.156Z,100499.56
2023-01-31T08:58:43.956Z,100492.41
2023-01-31T09:01:13.799Z,100501.91
2023-01-31T09:03:43.654Z,100505.03
2023-01-31T09:06:21.796Z,100513.13
2023-01-31T09:08:48.732Z,100510.88
2023-01-31T09:11:19.420Z,100510.59
2023-01-31T09:13:47.794Z,100514.22
2023-01-31T09:16:15.347Z,100518.59
2023-01-31T09:18:42.902Z,100511.03
2023-01-31T09:21:11.121Z,100502.78
2023-01-31T09:26:06.123Z,100490.44
2023-01-31T09:28:33.392Z,100493.81
2023-01-31T09:31:17.231Z,100491.28
2023-01-31T09:33:44.614Z,100500.66
2023-01-31T09:36:14.210Z,100506.56
2023-01-31T09:38:41.398Z,100510.59
2023-01-31T09:41:28.546Z,100511.16
2023-01-31T09:44:24.505Z,100499.13
2023-01-31T09:47:05.322Z,100494.63
2023-01-31T09:49:39.969Z,100478.38
2023-01-31T09:52:06.700Z,100477.50
2023-01-31T09:54:40.136Z,100484.78
2023-01-31T09:57:12.651Z,100490.41
2023-01-31T09:59:46.513Z,100488.16
2023-01-31T10:02:22.187Z,100512.94
2023-01-31T10:05:16.393Z,100511.41
2023-01-31T10:07:48.416Z,100509.03
2023-01-31T10:10:39.981Z,100485.00
2023-01-31T10:13:15.769Z,100485.06
2023-01-31T10:15:52.868Z,100481.56
2023-01-31T10:18:37.189Z,100489.69
2023-01-31T10:21:11.523Z,100480.06
2023-01-31T10:23:39.024Z,100481.97
2023-01-31T10:26:27.845Z,100488.78
2023-01-31T10:29:14.100Z,100477.75
2023-01-31T10:31:45.268Z,100467.25
2023-01-31T10:34:25.434Z,100458.25
2023-01-31T10:37:12.543Z,100450.34
2023-01-31T10:39:39.984Z,100452.44
2023-01-31T10:42:15.663Z,100450.09
2023-01-31T10:44:55.203Z,100452.63
2023-01-31T10:47:29.396Z,100454.47
2023-01-31T10:49:56.051Z,100446.81
2023-01-31T10:52:39.965Z,100445.88
2023-01-31T10:55:19.951Z,100441.78
2023-01-31T10:57:50.539Z,100440.94
2023-01-31T11:00:23.204Z,100427.72
2023-01-31T11:02:50.005Z,100425.28
2023-01-31T11:05:20.840Z,100433.69
2023-01-31T11:07:48.079Z,100421.28
2023-01-31T11:10:27.267Z,100399.19
2023-01-31T11:12:56.920Z,100402.53
2023-01-31T11:15:29.515Z,100391.56
2023-01-31T11:18:01.553Z,100392.34
2023-01-31T11:20:31.627Z,100378.69
2023-01-31T11:23:03.748Z,100374.03
2023-01-31T11:25:33.851Z,100363.53
2023-01-31T11:28:16.712Z,100359.97
2023-01-31T11:30:49.152Z,100363.47
2023-01-31T11:33:40.238Z,100356.00
2023-01-31T11:36:13.735Z,100353.03
2023-01-31T11:38:40.637Z,100352.84
2023-01-31T11:41:28.169Z,100356.59
2023-01-31T11:44:13.742Z,100364.59
2023-01-31T11:47:08.067Z,100363.81
2023-01-31T11:49:40.027Z,100350.91
2023-01-31T11:52:14.596Z,100352.09
2023-01-31T11:54:48.494Z,100348.59
2023-01-31T11:57:24.690Z,100356.91
2023-01-31T11:59:55.169Z,100357.97
2023-01-31T12:02:40.101Z,100349.91
2023-01-31T12:05:18.119Z,100347.41
2023-01-31T12:07:51.113Z,100349.91
2023-01-31T12:10:32.055Z,100347.00
2023-01-31T12:13:17.595Z,100346.56
2023-01-31T12:16:03.289Z,100332.53
2023-01-31T12:18:40.063Z,100331.94
2023-01-31T12:21:15.299Z,100339.31
2023-01-31T12:23:50.743Z,100337.88
2023-01-31T12:26:40.025Z,100327.91
2023-01-31T12:29:27.356Z,100319.28
2023-01-31T12:32:14.109Z,100318.22
2023-01-31T12:35:06.832Z,100328.78
2023-01-31T12:37:39.116Z,100324.59
2023-01-31T12:40:25.298Z,100315.88
2023-01-31T12:43:25.390Z,100315.63
2023-01-31T12:46:27.604Z,100303.63
2023-01-31T12:49:09.337Z,100315.41
2023-01-31T12:51:40.246Z,100300.25
2023-01-31T12:54:07.075Z,100299.97
2023-01-31T12:56:39.991Z,100274.44
2023-01-31T12:59:40.045Z,100251.56
2023-01-31T13:02:25.774Z,100258.06
2023-01-31T13:05:09.872Z,100243.34
2023-01-31T13:07:39.998Z,100237.63
2023-01-31T13:10:40.166Z,100225.88
2023-01-31T13:13:17.319Z,100210.53
2023-01-31T13:16:01.257Z,100207.03
2023-01-31T13:18:33.977Z,100221.50
2023-01-31T13:21:10.277Z,100204.22
2023-01-31T13:23:40.104Z,100208.09
2023-01-31T13:26:18.767Z,100190.00
2023-01-31T13:29:06.385Z,100176.53
2023-01-31T13:31:39.185Z,100172.72
2023-01-31T13:34:22.542Z,100191.44
2023-01-31T13:36:55.461Z,100198.25
2023-01-31T13:39:29.860Z,100194.06
2023-01-31T13:41:56.860Z,100189.72
2023-01-31T13:44:23.545Z,100196.41
2023-01-31T13:47:35.470Z,100182.13
2023-01-31T13:50:30.738Z,100170.72
2023-01-31T13:53:02.485Z,100170.88
2023-01-31T13:55:36.705Z,100166.72
2023-01-31T13:58:07.746Z,100166.44
2023-01-31T14:03:12.462Z,100167.06
2023-01-31T14:05:40.183Z,100154.72
2023-01-31T14:08:35.973Z,100155.56
2023-01-31T14:11:15.719Z,100166.41
2023-01-31T14:13:51.168Z,100169.38
2023-01-31T14:16:40.288Z,100177.44
2023-01-31T14:19:19.251Z,100187.34
2023-01-31T14:22:05.540Z,100175.03
2023-01-31T14:24:40.160Z,100170.94
2023-01-31T14:27:19.907Z,100147.25
2023-01-31T14:29:49.177Z,100160.63
2023-01-31T14:32:25.781Z,100157.28
2023-01-31T14:35:00.280Z,100158.22
2023-01-31T14:37:40.197Z,100156.53
2023-01-31T14:40:23.630Z,100164.53
2023-01-31T14:43:17.844Z,100164.72
2023-01-31T14:45:56.467Z,100158.66
2023-01-31T14:48:40.054Z,100157.50
2023-01-31T14:51:40.233Z,100165.13
2023-01-31T14:54:19.070Z,100168.47
2023-01-31T14:56:55.041Z,100163.16
2023-01-31T14:59:34.193Z,100144.81
2023-01-31T15:02:21.692Z,100159.44
2023-01-31T15:05:14.623Z,100154.78
2023-01-31T15:08:03.131Z,100153.41
2023-01-31T15:13:40.144Z,100160.72
2023-01-31T15:16:09.236Z,100154.03
2023-01-31T15:18:36.812Z,100156.69
2023-01-31T15:21:07.849Z,100166.19
2023-01-31T15:26:05.111Z,100163.06
2023-01-31T15:31:17.140Z,100148.69
2023-01-31T15:33:51.334Z,100153.72
2023-01-31T15:36:26.627Z,100145.03
2023-01-31T15:38:57.201Z,100144.22
2023-01-31T15:41:40.199Z,100150.72
2023-01-31T15:44:24.830Z,100158.72
2023-01-31T15:46:53.749Z,100158.66
2023-01-31T15:49:39.120Z,100149.28
2023-01-31T15:52:16.951Z,100161.63
2023-01-31T15:54:58.168Z,100169.75
2023-01-31T15:57:28.425Z,100167.56
2023-01-31T15:59:56.492Z,100169.91
2023-01-31T16:02:29.755Z,100166.19
2023-01-31T16:04:57.310Z,100161.53
2023-01-31T16:07:28.747Z,100169.91
2023-01-31T16:10:02.231Z,100175.84
2023-01-31T16:12:31.937Z,100161.16
2023-01-31T16:15:04.669Z,100168.56
2023-01-31T16:17:31.486Z,100164.47
2023-01-31T16:19:58.501Z,100176.16
2023-01-31T16:22:28.914Z,100168.97
2023-01-31T16:24:58.203Z,100172.47
2023-01-31T16:27:27.737Z,100165.84
2023-01-31T16:29:59.509Z,100156.69
2023-01-31T16:32:37.582Z,100172.06
2023-01-31T16:35:29.510Z,100166.44
2023-01-31T16:38:16.645Z,100159.22
2023-01-31T16:40:55.915Z,100153.34
2023-01-31T16:43:27.893Z,100141.63
2023-01-31T16:46:11.731Z,100142.63
2023-01-31T16:48:42.142Z,100136.94
2023-01-31T16:51:28.344Z,100142.56
2023-01-31T16:54:16.807Z,100149.97
2023-01-31T16:56:45.251Z,100156.28
2023-01-31T16:59:33.625Z,100164.63
2023-01-31T17:02:05.762Z,100170.16
2023-01-31T17:04:32.753Z,100160.97
2023-01-31T17:07:06.092Z,100167.97
2023-01-31T17:09:35.930Z,100172.16
2023-01-31T17:12:02.704Z,100167.06
2023-01-31T17:14:30.174Z,100183.34
2023-01-31T17:17:12.631Z,100185.69
2023-01-31T17:19:40.973Z,100187.75
2023-01-31T17:22:07.754Z,100184.50
2023-01-31T17:24:34.494Z,100182.28
2023-01-31T17:27:01.300Z,100181.44
2023-01-31T17:29:31.721Z,100174.97
2023-01-31T17:31:59.206Z,100174.28
2023-01-31T17:34:26.623Z,100167.81
2023-01-31T17:36:56.993Z,100176.81
2023-01-31T17:39:23.732Z,100173.75
2023-01-31T17:41:50.557Z,100166.44
2023-01-31T17:44:22.223Z,100168.81
2023-01-31T17:46:49.447Z,100168.66
2023-01-31T17:49:16.557Z,100169.84
2023-01-31T17:51:48.137Z,100166.88
2023-01-31T17:54:16.443Z,100167.09
2023-01-31T17:56:43.604Z,100162.59
2023-01-31T17:59:21.686Z,100163.28
2023-01-31T18:01:53.289Z,100160.31
2023-01-31T18:04:20.056Z,100162.31
2023-01-31T18:06:46.845Z,100167.31
2023-01-31T18:09:15.907Z,100159.38
2023-01-31T18:11:44.184Z,100159.91
2023-01-31T18:14:18.324Z,100164.69
2023-01-31T18:16:45.118Z,100165.03
2023-01-31T18:19:14.805Z,100161.03
2023-01-31T18:21:54.453Z,100174.03
2023-01-31T18:24:28.016Z,100159.19
2023-01-31T18:26:57.080Z,100153.69
2023-01-31T18:29:26.477Z,100151.50
2023-01-31T18:32:04.992Z,100149.88
2023-01-31T18:34:33.513Z,100152.03
2023-01-31T18:37:01.674Z,100147.06
2023-01-31T18:39:30.695Z,100141.19
2023-01-31T18:41:59.635Z,100139.06
2023-01-31T18:44:27.992Z,100139.56
2023-01-31T18:46:58.009Z,100129.75
2023-01-31T18:49:25.543Z,100136.44
2023-01-31T18:51:52.716Z,100136.91
2023-01-31T18:54:20.000Z,100150.59
2023-01-31T18:56:46.736Z,100148.56
2023-01-31T18:59:13.688Z,100152.69
2023-01-31T19:01:43.544Z,100161.16
2023-01-31T19:04:10.764Z,100150.34
2023-01-31T19:09:07.018Z,100161.69
2023-01-31T19:11:34.138Z,100161.38
2023-01-31T19:14:07.068Z,100164.03
2023-01-31T19:16:40.287Z,100142.03
2023-01-31T19:19:11.939Z,100141.09
2023-01-31T19:21:40.376Z,100159.06
2023-01-31T19:24:18.494Z,100161.88
2023-01-31T19:26:45.572Z,100156.75
2023-01-31T19:29:18.712Z,100138.78
2023-01-31T19:31:50.045Z,100160.34
2023-01-31T19:34:16.740Z,100162.84
2023-01-31T19:36:46.777Z,100153.84
2023-01-31T19:39:13.916Z,100152.22
2023-01-31T19:41:42.749Z,100164.53
2023-01-31T19:44:09.734Z,100154.06
2023-01-31T19:46:43.292Z,100156.53
2023-01-31T19:49:10.152Z,100139.41
2023-01-31T19:54:08.366Z,100144.84
2023-01-31T19:56:35.101Z,100143.03
2023-01-31T19:59:01.933Z,100134.19
2023-01-31T20:01:28.911Z,100142.88
2023-01-31T20:03:55.702Z,100141.19
2023-01-31T20:06:25.948Z,100142.72
2023-01-31T20:08:59.169Z,100141.50
2023-01-31T20:11:28.956Z,100149.66
2023-01-31T20:14:00.489Z,100141.16
2023-01-31T20:16:27.382Z,100141.59
2023-01-31T20:18:57.579Z,100135.13
2023-01-31T20:21:27.899Z,100137.13
2023-01-31T20:23:54.537Z,100138.16
2023-01-31T20:26:24.915Z,100147.16
2023-01-31T20:28:55.404Z,100138.16
2023-01-31T20:31:22.851Z,100137.03
2023-01-31T20:33:55.067Z,100135.34
2023-01-31T20:36:25.309Z,100138.38
2023-01-31T20:38:52.835Z,100138.38
2023-01-31T20:41:19.682Z,100146.72
2023-01-31T20:43:55.094Z,100148.72
2023-01-31T20:46:22.048Z,100145.94
2023-01-31T20:48:48.827Z,100158.75
2023-01-31T20:51:15.923Z,100149.97
2023-01-31T20:53:43.014Z,100151.41
2023-01-31T20:56:13.859Z,100119.94
2023-01-31T20:58:44.269Z,100130.13
2023-01-31T21:01:17.136Z,100140.97
2023-01-31T21:03:43.887Z,100145.63
2023-01-31T21:06:10.981Z,100156.66
2023-01-31T21:08:40.430Z,100160.84
2023-01-31T21:11:11.221Z,100155.66
2023-01-31T21:16:07.348Z,100138.81
2023-01-31T21:18:40.575Z,100140.50
2023-01-31T21:21:09.479Z,100133.63
2023-01-31T21:23:37.989Z,100131.97
2023-01-31T21:26:07.458Z,100135.31
2023-01-31T21:28:34.340Z,100145.97
2023-01-31T21:31:04.340Z,100137.97
2023-01-31T21:33:31.785Z,100136.66
2023-01-31T21:36:00.879Z,100145.03
2023-01-31T21:38:28.930Z,100151.69
2023-01-31T21:41:15.661Z,100150.38
2023-01-31T21:43:42.684Z,100158.38
2023-01-31T21:46:10.567Z,100138.41
2023-01-31T21:51:16.445Z,100145.41
2023-01-31T21:53:43.927Z,100138.41
2023-01-31T21:56:17.097Z,100116.38
2023-01-31T21:58:44.780Z,100124.06
2023-01-31T22:01:20.569Z,100135.56
2023-01-31T22:03:50.422Z,100138.09
2023-01-31T22:06:22.646Z,100125.41
2023-01-31T22:08:54.337Z,100121.56
2023-01-31T22:11:21.984Z,100130.75
2023-01-31T22:13:52.670Z,100124.91
2023-01-31T22:16:23.963Z,100121.56
2023-01-31T22:18:54.617Z,100129.38
2023-01-31T22:21:26.912Z,100136.38
2023-01-31T22:23:59.616Z,100120.84
2023-01-31T22:26:30.978Z,100136.50
2023-01-31T22:29:00.745Z,100133.00
2023-01-31T22:31:28.658Z,100131.34
2023-01-31T22:33:56.899Z,100136.66
2023-01-31T22:36:26.578Z,100138.81
2023-01-31T22:39:00.910Z,100139.28
2023-01-31T22:41:28.083Z,100146.59
2023-01-31T22:43:55.205Z,100131.75
2023-01-31T22:46:29.528Z,100134.72
2023-01-31T22:48:58.570Z,100126.22
2023-01-31T22:51:29.255Z,100118.88
2023-01-31T22:54:09.078Z,100110.34
2023-01-31T22:56:35.980Z,100108.16
2023-01-31T22:59:04.744Z,100081.81
2023-01-31T23:01:36.935Z,100093.31
2023-01-31T23:04:06.468Z,100102.00
2023-01-31T23:06:37.134Z,100100.84
2023-01-31T23:09:04.365Z,100101.84
2023-01-31T23:11:31.134Z,100101.53
2023-01-31T23:13:58.593Z,100087.88
2023-01-31T23:16:40.272Z,100090.91
2023-01-31T23:19:06.956Z,100087.88
2023-01-31T23:21:33.670Z,100086.72
2023-01-31T23:24:00.405Z,100085.59
2023-01-31T23:26:27.061Z,100089.94
2023-01-31T23:28:53.847Z,100086.78
2023-01-31T23:31:21.532Z,100092.13
2023-01-31T23:33:49.300Z,100085.31
2023-01-31T23:36:16.048Z,100078.84
2023-01-31T23:38:43.687Z,100088.34
2023-01-31T23:41:10.344Z,100072.19
2023-01-31T23:43:37.299Z,100079.84
2023-01-31T23:46:04.081Z,100068.69
2023-01-31T23:48:30.891Z,100069.69
2023-01-31T23:51:03.038Z,100069.69
2023-01-31T23:53:29.973Z,100080.66
2023-01-31T23:55:56.657Z,100076.69
2023-01-31T23:58:23.319Z,100078.16
